Dades de l'estació automàtica Barcelona - el Raval
Resum diari
21:30 TU| Temperatura mitjana | 17.7 °C | |
|---|---|---|
| Temperatura màxima | 20.7 °C | 9:41 TU |
| Temperatura mínima | 15.9 °C | 21:59 TU |
| Humitat relativa mitjana | 83% | |
| Precipitació acumulada | 4.1 mm | |
| Ratxa màxima del vent (10 m) | 25.9 km/h - 279º | 20:08 TU |
| Pressió atmosfèrica mitjana | 1012.2 hPa | |
| Irradiació solar global | 11.4 MJ/m2 | |
El tram horari està expressat en Temps Universal (TU). Cal sumar una hora en horari d'hivern i dues en horari d'estiu per passar a l'hora oficial.
Barcelona - el Raval
| Municipi | Barcelona |
|---|---|
| Comarca | Barcelonès |
| Altitud | 33 m |
| Data alta | 11.10.2006 |
| Estat actual | Operativa |
| Període TU |
TM °C |
TX °C |
TN °C |
HRM % |
PPT mm |
VVM (10 m) km/h |
DVM (10 m) graus |
VVX (10 m) km/h |
PM hPa |
RS W/m2 |
|---|---|---|---|---|---|---|---|---|---|---|
| 00:00 - 00:30 | 16.3 | 16.4 | 16.2 | 100 | 0.0 | 4.0 | 9 | 10.8 | 1014.1 | 0 |
| 00:30 - 01:00 | 16.4 | 16.5 | 16.4 | 100 | 0.0 | 2.9 | 26 | 10.4 | 1013.8 | 0 |
| 01:00 - 01:30 | 16.6 | 16.6 | 16.5 | 98 | 0.0 | 2.9 | 360 | 8.6 | 1013.6 | 0 |
| 01:30 - 02:00 | 16.6 | 16.7 | 16.6 | 91 | 0.0 | 2.2 | 44 | 6.8 | 1013.4 | 0 |
| 02:00 - 02:30 | 16.7 | 16.8 | 16.7 | 85 | 0.0 | 3.6 | 49 | 7.2 | 1013.3 | 0 |
| 02:30 - 03:00 | 16.7 | 16.8 | 16.7 | 84 | 0.0 | 2.9 | 61 | 5.8 | 1013.3 | 0 |
| 03:00 - 03:30 | 16.8 | 16.9 | 16.7 | 83 | 0.0 | 2.9 | 72 | 5.4 | 1013.4 | 0 |
| 03:30 - 04:00 | 16.8 | 16.9 | 16.8 | 82 | 0.0 | 3.2 | 79 | 7.9 | 1013.2 | 0 |
| 04:00 - 04:30 | 16.8 | 16.9 | 16.8 | 82 | 0.0 | 1.4 | 95 | 3.6 | 1013.0 | 0 |
| 04:30 - 05:00 | 16.9 | 16.9 | 16.8 | 82 | 0.0 | 0.7 | 279 | 3.6 | 1012.9 | 3 |
| 05:00 - 05:30 | 17.0 | 17.1 | 16.9 | 82 | 0.0 | 2.2 | 220 | 6.1 | 1013.0 | 19 |
| 05:30 - 06:00 | 17.0 | 17.2 | 16.9 | 85 | 0.0 | 3.6 | 195 | 7.6 | 1013.0 | 72 |
| 06:00 - 06:30 | 17.7 | 18.2 | 17.2 | 80 | 0.0 | 0.7 | 213 | 4.3 | 1012.9 | 152 |
| 06:30 - 07:00 | 18.5 | 18.8 | 18.2 | 75 | 0.0 | 2.5 | 316 | 7.6 | 1012.9 | 320 |
| 07:00 - 07:30 | 19.2 | 19.8 | 18.7 | 69 | 0.0 | 2.9 | 251 | 8.3 | 1012.9 | 394 |
| 07:30 - 08:00 | 20.2 | 20.6 | 19.8 | 62 | 0.0 | 3.2 | 268 | 8.3 | 1012.7 | 474 |
| 08:00 - 08:30 | 20.0 | 20.2 | 19.7 | 65 | 0.0 | 5.4 | 127 | 12.2 | 1012.4 | 398 |
| 08:30 - 09:00 | 19.2 | 19.6 | 19.0 | 72 | 0.0 | 7.6 | 115 | 13.7 | 1012.4 | 336 |
| 09:00 - 09:30 | 19.6 | 20.3 | 19.2 | 71 | 0.0 | 7.2 | 139 | 16.6 | 1012.3 | 567 |
| 09:30 - 10:00 | 20.4 | 20.7 | 19.8 | 67 | 0.0 | 9.4 | 155 | 21.6 | 1012.3 | 557 |
| 10:00 - 10:30 | 19.4 | 19.8 | 19.1 | 71 | 0.0 | 10.8 | 200 | 23.8 | 1012.4 | 306 |
| 10:30 - 11:00 | 19.6 | 19.9 | 19.0 | 68 | 0.1 | 8.3 | 189 | 16.9 | 1012.3 | 155 |
| 11:00 - 11:30 | 17.7 | 18.7 | 17.4 | 98 | 0.3 | 9.7 | 180 | 19.1 | 1012.2 | 217 |
| 11:30 - 12:00 | 18.2 | 18.6 | 17.7 | 89 | 0.1 | 9.0 | 205 | 20.5 | 1012.3 | 413 |
| 12:00 - 12:30 | 18.6 | 18.8 | 18.4 | 82 | 0.0 | 9.0 | 205 | 21.2 | 1012.1 | 350 |
| 12:30 - 13:00 | 18.5 | 18.7 | 18.4 | 81 | 0.0 | 8.6 | 216 | 18.7 | 1011.8 | 201 |
| 13:00 - 13:30 | 19.2 | 19.4 | 18.7 | 73 | 0.0 | 8.6 | 217 | 18.7 | 1011.8 | 300 |
| 13:30 - 14:00 | 18.9 | 19.4 | 18.4 | 76 | 0.3 | 7.6 | 210 | 17.3 | 1011.8 | 131 |
| 14:00 - 14:30 | 18.1 | 18.4 | 18.0 | 79 | 0.1 | 7.2 | 234 | 14.4 | 1011.6 | 115 |
| 14:30 - 15:00 | 17.8 | 18.2 | 17.6 | 87 | 0.2 | 6.8 | 229 | 13.3 | 1011.5 | 135 |
| 15:00 - 15:30 | 17.5 | 17.7 | 17.0 | 87 | 1.2 | 8.3 | 257 | 14.8 | 1011.2 | 57 |
| 15:30 - 16:00 | 16.8 | 16.9 | 16.6 | 91 | 0.8 | 3.2 | 239 | 10.4 | 1011.2 | 100 |
| 16:00 - 16:30 | 16.8 | 16.9 | 16.7 | 98 | 0.6 | 2.2 | 208 | 7.2 | 1011.2 | 125 |
| 16:30 - 17:00 | 17.1 | 17.2 | 16.8 | 99 | 0.0 | 1.1 | 335 | 5.4 | 1010.8 | 150 |
| 17:00 - 17:30 | 17.5 | 18.0 | 17.2 | 99 | 0.0 | 1.8 | 169 | 5.8 | 1010.7 | 175 |
| 17:30 - 18:00 | 17.6 | 17.8 | 17.5 | 93 | 0.0 | 4.3 | 226 | 10.1 | 1010.8 | 101 |
| 18:00 - 18:30 | 17.3 | 17.5 | 17.2 | 94 | 0.0 | 4.7 | 200 | 10.8 | 1010.8 | 21 |
| 18:30 - 19:00 | 17.0 | 17.2 | 16.9 | 96 | 0.0 | 6.8 | 239 | 13.7 | 1011.1 | 4 |
| 19:00 - 19:30 | 16.9 | 16.9 | 16.7 | 94 | 0.0 | 7.9 | 244 | 20.5 | 1011.3 | 0 |
| 19:30 - 20:00 | 16.7 | 16.8 | 16.6 | 92 | 0.1 | 8.6 | 252 | 17.3 | 1011.8 | 0 |
| 20:00 - 20:30 | 16.8 | 17.1 | 16.2 | 84 | 0.3 | 10.4 | 307 | 25.9 | 1012.1 | 0 |
| 20:30 - 21:00 | 16.2 | 16.5 | 16.1 | 75 | 0.0 | 5.8 | 305 | 15.5 | 1011.9 | 0 |
| 21:00 - 21:30 | 16.5 | 16.7 | 16.5 | 71 | 0.0 | 4.0 | 118 | 10.8 | 1011.9 | 0 |
| 21:30 - 22:00 | 16.3 | 16.5 | 15.9 | 72 | 0.0 | 3.6 | 215 | 8.6 | 1011.7 | 0 |
| 22:00 - 22:30 | (s/d) | (s/d) | (s/d) | (s/d) | (s/d) | (s/d) | (s/d) | (s/d) | (s/d) | (s/d) |
Les dades en taronja només han passat un control de qualitat automàtic. Resta pendent la seva validació definitiva.